Saint-Pamphile, Canada
Current Conditions -  °F | °C
As of 7:53 AM on Friday 24 Oct 2014 (Local Time) from KFVE Reporting Station
Light Rain Light Rain  
Wind Chill: 38°   Ceiling: 6000
Heat Index: 42°   Visibility: 10mi
Dew Point: 31°   Wind: 6mph
Humidity: 65%   Direction: 10°N
Pressure: 29.84"   Gusts: NA
Location:  46.95°N, 69.78°W
Report Text: KFVE 241153Z AUTO 01005KT 10SM -RA OVC060 06/M01 A2984 RMK AO2 SLP110 P0000 60000 T00561006 10078 20056 53002
Loading
Personal Weather Stations






























Interactive Weather Map
Tropical Storm Tracking
New forecast layout! Learn more

10-Day Weather Forecast

Advertisements
Track Severe Weather on mobile